Aviation Digital Data Service (ADDS)

Output produced by METARs form (2222 UTC 18 December 2014)
found at http://aviationweather.gov/adds/metars/
 
KLCH 182112Z 1821/1918 06004KT P6SM VCSH OVC012 
     FM190200 06004KT 6SM BR VCSH OVC009 
     FM191000 06007KT 5SM -RA OVC006 
     TEMPO 1911/1914 2SM RA SCT006 OVC015 
     FM191400 04008KT 3SM RA OVC005